WetterOnline ( http://www.wetteronline.de )

Wetter aktuell Bad Salzuflen

Aktuelles Wetter: Bad Salzuflen (139m)

6-stündlich | Neueste Meldungen
Ortszeit Temperatur Wetter
Di, 16.10. 8:00 12.0° C bedeckt
Di, 16.10. 2:00 11.9° C wolkenlos
Mo, 15.10. 20:00 17.8° C bedeckt
Mo, 15.10. 14:00 24.4° C wolkenlos
Mo, 15.10. 8:00 13.8° C wolkenlos
Mo, 15.10. 2:00 15.6° C wolkenlos
So, 14.10. 20:00 20.7° C wolkenlos
So, 14.10. 14:00 24.7° C wolkenlos
Ortszeit Temperatur Wetter
Di, 16.10. 13:30 19.3° C bedeckt
Di, 16.10. 13:10 19.1° C bedeckt
Di, 16.10. 13:00 18.6° C bedeckt
Di, 16.10. 12:50 18.6° C bedeckt
Di, 16.10. 12:40 18.5° C bedeckt
Di, 16.10. 12:30 18.1° C bedeckt
Di, 16.10. 12:00 17.0° C bewölkt
Di, 16.10. 11:30 15.7° C bedeckt
Di, 16.10. 11:00 14.5° C bedeckt
Di, 16.10. 10:30 14.0° C bedeckt
Ortszeit Relative Feuchte Sichtweite
Di, 16.10. 8:00 84% 22 km
Di, 16.10. 2:00 85% 25 km
Mo, 15.10. 20:00 59% 70 km
Mo, 15.10. 14:00 36% 45 km
Mo, 15.10. 8:00 70% 30 km
Mo, 15.10. 2:00 66% 35 km
So, 14.10. 20:00 50% 55 km
So, 14.10. 14:00 41% 35 km
Ortszeit Relative Feuchte Sichtweite
Di, 16.10. 13:30 59% 30 km
Di, 16.10. 13:10 58% -
Di, 16.10. 13:00 58% 30 km
Di, 16.10. 12:50 58% -
Di, 16.10. 12:40 61% -
Di, 16.10. 12:30 64% 28 km
Di, 16.10. 12:00 72% 25 km
Di, 16.10. 11:30 75% 24 km
Di, 16.10. 11:00 83% 24 km
Di, 16.10. 10:30 82% 29 km
Ortszeit Niederschlagsmenge Niederschlagsart
Di, 16.10. 8:00 0.1 l/m2 in 12 Std. Regen
Di, 16.10. 2:00 0.0 l/m2 in 6 Std. -
Mo, 15.10. 20:00 0.0 l/m2 in 12 Std. -
Mo, 15.10. 14:00 0.0 l/m2 in 6 Std. -
Mo, 15.10. 8:00 0.0 l/m2 in 12 Std. -
Mo, 15.10. 2:00 0.0 l/m2 in 6 Std. -
So, 14.10. 20:00 0.0 l/m2 in 12 Std. -
So, 14.10. 14:00 0.0 l/m2 in 6 Std. -
Ortszeit Niederschlagsmenge Niederschlagsart
Di, 16.10. 13:30 0.0 l/m2 in 1 Std. -
Di, 16.10. 13:10 keine Meldung -
Di, 16.10. 13:00 0.0 l/m2 in 1 Std. -
Di, 16.10. 12:50 keine Meldung -
Di, 16.10. 12:40 keine Meldung -
Di, 16.10. 12:30 0.0 l/m2 in 1 Std. -
Di, 16.10. 12:00 0.1 l/m2 in 1 Std. Regen
Di, 16.10. 11:30 0.0 l/m2 in 1 Std. -
Di, 16.10. 11:00 0.1 l/m2 in 1 Std. Regen
Di, 16.10. 10:30 0.0 l/m2 in 1 Std. -
Ortszeit Stärke Spitze Richtung
km/h Bft. km/h Grad Sektor
Di, 16.10. 8:00 0 0 7 - -
Di, 16.10. 2:00 0 0 7 - -
Mo, 15.10. 20:00 4 1 22 10° N
Mo, 15.10. 14:00 13 3 24 200° S
Mo, 15.10. 8:00 4 1 11 260° W
Mo, 15.10. 2:00 4 1 25 330° NW
So, 14.10. 20:00 11 2 29 140° SO
So, 14.10. 14:00 11 2 25 160° S
Ortszeit Stärke Spitze Richtung
km/h Bft. km/h Grad Sektor
Di, 16.10. 13:30 4 1 4 220° SW
Di, 16.10. 13:10 2 1 - 200° S
Di, 16.10. 13:00 4 1 7 230° SW
Di, 16.10. 12:50 4 1 - 230° SW
Di, 16.10. 12:40 4 1 - 230° SW
Di, 16.10. 12:30 6 1 7 220° SW
Di, 16.10. 12:00 4 1 7 220° SW
Di, 16.10. 11:30 2 1 4 250° W
Di, 16.10. 11:00 2 1 4 200° S
Di, 16.10. 10:30 4 1 4 10° N
Ortszeit Untergrenze Bedeckung Gattung
total tief tief mittel hoch
Di, 16.10. 8:00 3600 m 8/8 8/8 - - -
Di, 16.10. 2:00 - 0/8 0/8 - - -
Mo, 15.10. 20:00 3900 m 8/8 8/8 - - -
Mo, 15.10. 14:00 - 0/8 0/8 - - -
Mo, 15.10. 8:00 - 0/8 0/8 - - -
Mo, 15.10. 2:00 - 0/8 0/8 - - -
So, 14.10. 20:00 - 0/8 0/8 - - -
So, 14.10. 14:00 - 0/8 0/8 - - -
Ortszeit Bedeckungsgrad in Achtel und Wolkenuntergrenze
Di, 16.10. 13:30 5(3300m) 8(3900m) 8(4800m)
Di, 16.10. 13:10 3(3300m) 8(3900m) 8(4800m)
Di, 16.10. 13:00 4(3300m) 8(4200m) 8(4800m)
Di, 16.10. 12:50 4(3300m) 8(4200m) 8(4800m)
Di, 16.10. 12:40 1(3300m) 8(3900m) 8(4800m)
Di, 16.10. 12:30 2(3300m) 8(3900m) 8(4500m)
Di, 16.10. 12:00 5(2400m) 7(3000m) 8(4200m)
Di, 16.10. 11:30 8(2100m) 8(2700m)
Di, 16.10. 11:00 8(2700m) 8(2700m)
Di, 16.10. 10:30 8(2400m) 8(4200m)
Ortszeit Luftdruck NN (hPa) Tendenz (hPa in 3 Std.)
Di, 16.10. 8:00 1018 + 0,8
Di, 16.10. 2:00 1016 + 0,5
Mo, 15.10. 20:00 1015 + 1,4
Mo, 15.10. 14:00 1013 - 0,3
Mo, 15.10. 8:00 1013 + 0,8
Mo, 15.10. 2:00 1012 + 0,2
So, 14.10. 20:00 1011 + 0,3
So, 14.10. 14:00 1011 - 1,2
Ortszeit Luftdruck NN (hPa) Tendenz (hPa in 3 Std.)
Di, 16.10. 13:30 1019 + 0,3
Di, 16.10. 13:10 1019 keine Meldung
Di, 16.10. 13:00 1019 + 0,5
Di, 16.10. 12:50 1019 keine Meldung
Di, 16.10. 12:40 1019 keine Meldung
Di, 16.10. 12:30 1019 + 0,8
Di, 16.10. 12:00 1019 + 0,9
Di, 16.10. 11:30 1019 + 1,1
Di, 16.10. 11:00 1019 + 1,3
Di, 16.10. 10:30 1019 + 1,3
Ortszeit Schneehöhe (cm)
Di, 16.10. 8:00 0
Di, 16.10. 2:00 0
Mo, 15.10. 20:00 0
Mo, 15.10. 14:00 0
Mo, 15.10. 8:00 0
Mo, 15.10. 2:00 0
So, 14.10. 20:00 0
So, 14.10. 14:00 0
Ortszeit Schneehöhe (cm)
Di, 16.10. 13:30 0
Di, 16.10. 13:10 0
Di, 16.10. 13:00 0
Di, 16.10. 12:50 0
Di, 16.10. 12:40 0
Di, 16.10. 12:30 0
Di, 16.10. 12:00 0
Di, 16.10. 11:30 0
Di, 16.10. 11:00 0
Di, 16.10. 10:30 0
Link zu dieser Seite / Seite empfehlen

Das Wetter in ...